Potengi, Brazil
Current Conditions -  °F | °C
As of 12:00 PM on Friday 28 Nov 2014 (Local Time) from SBJU Reporting Station
Few Clouds Few Clouds  
Wind Chill: 93°   Ceiling: Unl
Heat Index: 94°   Visibility: 6mi
Dew Point: 63°   Wind: 8mph
Humidity: 36%   Direction: 200°SSW
Pressure: 30"   Gusts: NA
Location:  7.09°S, 40.03°W
Report Text: SBJU 281500Z 20007KT 9999 FEW022 34/17 Q1016
Loading
Personal Weather Stations






























Interactive Weather Map New forecast layout! Learn more

10-Day Weather Forecast

Advertisements
Track Severe Weather on mobile